sensor_id;sensor_type;location;lat;lon;timestamp;P1;durP1;ratioP1;P2;durP2;ratioP2
25345;SDS011;13300;51.032;3.710;2022-10-12T00:00:49;26.90;;;13.93;;
25345;SDS011;13300;51.032;3.710;2022-10-12T00:03:16;25.67;;;13.43;;
25345;SDS011;13300;51.032;3.710;2022-10-12T00:05:42;26.30;;;12.98;;
25345;SDS011;13300;51.032;3.710;2022-10-12T00:08:08;28.23;;;13.68;;
25345;SDS011;13300;51.032;3.710;2022-10-12T00:10:38;28.70;;;13.23;;
25345;SDS011;13300;51.032;3.710;2022-10-12T00:13:07;30.42;;;13.80;;
25345;SDS011;13300;51.032;3.710;2022-10-12T00:15:37;27.10;;;13.70;;
25345;SDS011;13300;51.032;3.710;2022-10-12T00:18:04;27.05;;;13.82;;
25345;SDS011;13300;51.032;3.710;2022-10-12T00:20:30;28.27;;;13.57;;
25345;SDS011;13300;51.032;3.710;2022-10-12T00:22:55;27.55;;;13.82;;
25345;SDS011;13300;51.032;3.710;2022-10-12T00:25:21;26.65;;;13.43;;
25345;SDS011;13300;51.032;3.710;2022-10-12T00:27:47;30.67;;;13.90;;
25345;SDS011;13300;51.032;3.710;2022-10-12T00:30:12;24.30;;;12.68;;
25345;SDS011;13300;51.032;3.710;2022-10-12T00:32:38;28.73;;;14.32;;
25345;SDS011;13300;51.032;3.710;2022-10-12T00:35:04;28.17;;;12.88;;
25345;SDS011;13300;51.032;3.710;2022-10-12T00:37:30;27.50;;;13.70;;
25345;SDS011;13300;51.032;3.710;2022-10-12T00:39:56;27.77;;;13.23;;
25345;SDS011;13300;51.032;3.710;2022-10-12T00:42:21;26.75;;;13.45;;
25345;SDS011;13300;51.032;3.710;2022-10-12T00:44:47;21.77;;;12.50;;
25345;SDS011;13300;51.032;3.710;2022-10-12T00:49:53;22.00;;;11.73;;
25345;SDS011;13300;51.032;3.710;2022-10-12T00:53:07;23.70;;;12.23;;
25345;SDS011;13300;51.032;3.710;2022-10-12T00:55:37;23.35;;;11.45;;
25345;SDS011;13300;51.032;3.710;2022-10-12T00:58:08;29.80;;;12.30;;
25345;SDS011;13300;51.032;3.710;2022-10-12T01:00:34;27.70;;;11.63;;
25345;SDS011;13300;51.032;3.710;2022-10-12T01:03:02;24.33;;;12.02;;
25345;SDS011;13300;51.032;3.710;2022-10-12T01:05:31;20.27;;;11.32;;
25345;SDS011;13300;51.032;3.710;2022-10-12T01:07:57;26.10;;;13.05;;
25345;SDS011;13300;51.032;3.710;2022-10-12T01:10:24;19.33;;;11.40;;
25345;SDS011;13300;51.032;3.710;2022-10-12T01:12:50;20.88;;;12.18;;
25345;SDS011;13300;51.032;3.710;2022-10-12T01:15:17;24.25;;;11.55;;
25345;SDS011;13300;51.032;3.710;2022-10-12T01:31:08;24.38;;;11.98;;
25345;SDS011;13300;51.032;3.710;2022-10-12T01:39:52;23.58;;;11.77;;
25345;SDS011;13300;51.032;3.710;2022-10-12T01:42:24;21.20;;;11.48;;
25345;SDS011;13300;51.032;3.710;2022-10-12T01:45:12;19.42;;;11.48;;
25345;SDS011;13300;51.032;3.710;2022-10-12T01:47:41;25.20;;;11.15;;
25345;SDS011;13300;51.032;3.710;2022-10-12T01:50:10;19.50;;;11.18;;
25345;SDS011;13300;51.032;3.710;2022-10-12T01:52:59;23.80;;;11.82;;
25345;SDS011;13300;51.032;3.710;2022-10-12T01:55:47;21.98;;;11.65;;
25345;SDS011;13300;51.032;3.710;2022-10-12T01:58:19;19.83;;;11.88;;
25345;SDS011;13300;51.032;3.710;2022-10-12T02:03:59;21.58;;;11.63;;
25345;SDS011;13300;51.032;3.710;2022-10-12T02:06:36;21.52;;;10.80;;
25345;SDS011;13300;51.032;3.710;2022-10-12T02:09:25;19.70;;;11.23;;
25345;SDS011;13300;51.032;3.710;2022-10-12T02:11:54;21.33;;;11.48;;
25345;SDS011;13300;51.032;3.710;2022-10-12T02:14:26;19.40;;;11.27;;
25345;SDS011;13300;51.032;3.710;2022-10-12T02:17:00;20.05;;;11.20;;
25345;SDS011;13300;51.032;3.710;2022-10-12T02:19:30;17.02;;;11.45;;
25345;SDS011;13300;51.032;3.710;2022-10-12T02:22:01;20.40;;;11.10;;
25345;SDS011;13300;51.032;3.710;2022-10-12T02:24:29;21.38;;;11.82;;
25345;SDS011;13300;51.032;3.710;2022-10-12T02:26:57;23.33;;;12.63;;
25345;SDS011;13300;51.032;3.710;2022-10-12T02:29:26;22.10;;;12.45;;
25345;SDS011;13300;51.032;3.710;2022-10-12T02:32:02;20.08;;;11.50;;
25345;SDS011;13300;51.032;3.710;2022-10-12T02:34:33;20.20;;;11.38;;
25345;SDS011;13300;51.032;3.710;2022-10-12T02:39:52;19.52;;;11.55;;
25345;SDS011;13300;51.032;3.710;2022-10-12T02:42:29;20.42;;;12.18;;
25345;SDS011;13300;51.032;3.710;2022-10-12T02:44:58;22.42;;;12.50;;
25345;SDS011;13300;51.032;3.710;2022-10-12T02:47:27;18.70;;;11.75;;
25345;SDS011;13300;51.032;3.710;2022-10-12T02:49:55;23.13;;;11.98;;
25345;SDS011;13300;51.032;3.710;2022-10-12T02:52:23;26.90;;;12.95;;
25345;SDS011;13300;51.032;3.710;2022-10-12T02:54:48;20.67;;;12.93;;
25345;SDS011;13300;51.032;3.710;2022-10-12T02:57:14;20.45;;;12.48;;
25345;SDS011;13300;51.032;3.710;2022-10-12T02:59:40;19.17;;;12.63;;
25345;SDS011;13300;51.032;3.710;2022-10-12T03:02:05;22.50;;;13.40;;
25345;SDS011;13300;51.032;3.710;2022-10-12T03:04:32;26.65;;;13.20;;
25345;SDS011;13300;51.032;3.710;2022-10-12T03:06:57;21.30;;;13.05;;
25345;SDS011;13300;51.032;3.710;2022-10-12T03:09:23;20.60;;;12.98;;
25345;SDS011;13300;51.032;3.710;2022-10-12T03:11:49;20.27;;;13.05;;
25345;SDS011;13300;51.032;3.710;2022-10-12T03:14:14;25.38;;;14.07;;
25345;SDS011;13300;51.032;3.710;2022-10-12T03:16:41;20.70;;;13.35;;
25345;SDS011;13300;51.032;3.710;2022-10-12T03:19:07;24.10;;;13.52;;
25345;SDS011;13300;51.032;3.710;2022-10-12T03:21:33;25.92;;;13.75;;
25345;SDS011;13300;51.032;3.710;2022-10-12T03:23:59;21.10;;;13.52;;
25345;SDS011;13300;51.032;3.710;2022-10-12T03:26:25;21.83;;;13.82;;
25345;SDS011;13300;51.032;3.710;2022-10-12T03:28:50;23.00;;;14.13;;
25345;SDS011;13300;51.032;3.710;2022-10-12T03:31:16;23.50;;;13.93;;
25345;SDS011;13300;51.032;3.710;2022-10-12T03:33:42;24.08;;;14.40;;
25345;SDS011;13300;51.032;3.710;2022-10-12T03:36:08;27.48;;;14.73;;
25345;SDS011;13300;51.032;3.710;2022-10-12T03:38:34;22.58;;;14.00;;
25345;SDS011;13300;51.032;3.710;2022-10-12T03:40:59;21.05;;;14.02;;
25345;SDS011;13300;51.032;3.710;2022-10-12T03:43:25;30.83;;;14.27;;
25345;SDS011;13300;51.032;3.710;2022-10-12T03:45:51;26.45;;;14.05;;
25345;SDS011;13300;51.032;3.710;2022-10-12T03:48:18;26.40;;;14.93;;
25345;SDS011;13300;51.032;3.710;2022-10-12T03:50:47;21.65;;;14.30;;
25345;SDS011;13300;51.032;3.710;2022-10-12T03:53:16;22.08;;;14.45;;
25345;SDS011;13300;51.032;3.710;2022-10-12T03:55:42;23.05;;;14.20;;
25345;SDS011;13300;51.032;3.710;2022-10-12T03:58:08;22.08;;;13.88;;
25345;SDS011;13300;51.032;3.710;2022-10-12T04:00:34;25.45;;;14.55;;
25345;SDS011;13300;51.032;3.710;2022-10-12T04:02:59;24.23;;;14.88;;
25345;SDS011;13300;51.032;3.710;2022-10-12T04:05:26;22.50;;;13.90;;
25345;SDS011;13300;51.032;3.710;2022-10-12T04:07:52;20.10;;;13.48;;
25345;SDS011;13300;51.032;3.710;2022-10-12T04:10:18;25.60;;;14.35;;
25345;SDS011;13300;51.032;3.710;2022-10-12T04:12:44;22.08;;;13.65;;
25345;SDS011;13300;51.032;3.710;2022-10-12T04:15:10;25.17;;;13.20;;
25345;SDS011;13300;51.032;3.710;2022-10-12T04:17:35;19.85;;;13.60;;
25345;SDS011;13300;51.032;3.710;2022-10-12T04:20:01;21.75;;;13.73;;
25345;SDS011;13300;51.032;3.710;2022-10-12T04:22:27;24.48;;;13.32;;
25345;SDS011;13300;51.032;3.710;2022-10-12T04:24:53;26.33;;;13.90;;
25345;SDS011;13300;51.032;3.710;2022-10-12T04:27:19;23.33;;;14.25;;
25345;SDS011;13300;51.032;3.710;2022-10-12T04:29:44;23.35;;;14.00;;
25345;SDS011;13300;51.032;3.710;2022-10-12T04:32:10;19.13;;;12.68;;
25345;SDS011;13300;51.032;3.710;2022-10-12T04:34:36;23.52;;;13.60;;
25345;SDS011;13300;51.032;3.710;2022-10-12T04:37:02;21.27;;;13.40;;
25345;SDS011;13300;51.032;3.710;2022-10-12T04:39:28;21.63;;;14.40;;
25345;SDS011;13300;51.032;3.710;2022-10-12T04:41:54;19.35;;;13.38;;
25345;SDS011;13300;51.032;3.710;2022-10-12T04:44:20;21.38;;;14.38;;
25345;SDS011;13300;51.032;3.710;2022-10-12T04:46:46;24.70;;;14.82;;
25345;SDS011;13300;51.032;3.710;2022-10-12T04:49:12;30.17;;;15.20;;
25345;SDS011;13300;51.032;3.710;2022-10-12T04:51:38;27.00;;;14.70;;
25345;SDS011;13300;51.032;3.710;2022-10-12T04:54:04;21.83;;;14.45;;
25345;SDS011;13300;51.032;3.710;2022-10-12T04:56:29;32.92;;;15.50;;
25345;SDS011;13300;51.032;3.710;2022-10-12T04:58:55;27.35;;;15.90;;
25345;SDS011;13300;51.032;3.710;2022-10-12T05:01:21;25.05;;;14.95;;
25345;SDS011;13300;51.032;3.710;2022-10-12T05:03:46;30.50;;;15.20;;
25345;SDS011;13300;51.032;3.710;2022-10-12T05:06:12;24.40;;;14.55;;
25345;SDS011;13300;51.032;3.710;2022-10-12T05:08:38;25.52;;;15.27;;
25345;SDS011;13300;51.032;3.710;2022-10-12T05:11:04;26.08;;;15.90;;
25345;SDS011;13300;51.032;3.710;2022-10-12T05:13:29;28.27;;;16.42;;
25345;SDS011;13300;51.032;3.710;2022-10-12T05:15:55;22.25;;;15.98;;
25345;SDS011;13300;51.032;3.710;2022-10-12T05:18:21;25.40;;;15.98;;
25345;SDS011;13300;51.032;3.710;2022-10-12T05:20:47;33.50;;;16.00;;
25345;SDS011;13300;51.032;3.710;2022-10-12T05:23:12;27.25;;;16.85;;
25345;SDS011;13300;51.032;3.710;2022-10-12T05:25:38;30.40;;;17.13;;
25345;SDS011;13300;51.032;3.710;2022-10-12T05:28:04;32.33;;;16.85;;
25345;SDS011;13300;51.032;3.710;2022-10-12T05:30:30;33.22;;;17.23;;
25345;SDS011;13300;51.032;3.710;2022-10-12T05:32:56;30.42;;;17.27;;
25345;SDS011;13300;51.032;3.710;2022-10-12T05:35:23;35.33;;;17.25;;
25345;SDS011;13300;51.032;3.710;2022-10-12T05:37:49;26.15;;;16.85;;
25345;SDS011;13300;51.032;3.710;2022-10-12T05:40:15;25.83;;;17.05;;
25345;SDS011;13300;51.032;3.710;2022-10-12T05:42:41;25.58;;;16.35;;
25345;SDS011;13300;51.032;3.710;2022-10-12T05:45:08;32.30;;;15.70;;
25345;SDS011;13300;51.032;3.710;2022-10-12T05:47:34;27.05;;;15.80;;
25345;SDS011;13300;51.032;3.710;2022-10-12T05:50:00;28.65;;;16.95;;
25345;SDS011;13300;51.032;3.710;2022-10-12T05:52:25;26.67;;;16.38;;
25345;SDS011;13300;51.032;3.710;2022-10-12T05:54:51;27.25;;;15.98;;
25345;SDS011;13300;51.032;3.710;2022-10-12T05:57:17;24.63;;;15.65;;
25345;SDS011;13300;51.032;3.710;2022-10-12T05:59:43;28.80;;;16.10;;
25345;SDS011;13300;51.032;3.710;2022-10-12T06:02:12;27.10;;;17.02;;
25345;SDS011;13300;51.032;3.710;2022-10-12T06:07:05;23.00;;;14.65;;
25345;SDS011;13300;51.032;3.710;2022-10-12T06:09:31;28.30;;;16.05;;
25345;SDS011;13300;51.032;3.710;2022-10-12T06:11:56;23.70;;;15.48;;
25345;SDS011;13300;51.032;3.710;2022-10-12T06:14:22;22.73;;;15.63;;
25345;SDS011;13300;51.032;3.710;2022-10-12T06:16:48;24.42;;;16.00;;
25345;SDS011;13300;51.032;3.710;2022-10-12T06:19:14;28.20;;;15.43;;
25345;SDS011;13300;51.032;3.710;2022-10-12T06:21:40;25.35;;;16.30;;
25345;SDS011;13300;51.032;3.710;2022-10-12T06:24:05;31.35;;;17.75;;
25345;SDS011;13300;51.032;3.710;2022-10-12T06:26:31;30.17;;;17.50;;
25345;SDS011;13300;51.032;3.710;2022-10-12T06:28:57;26.92;;;17.92;;
25345;SDS011;13300;51.032;3.710;2022-10-12T06:31:24;29.85;;;19.10;;
25345;SDS011;13300;51.032;3.710;2022-10-12T06:33:51;23.88;;;16.90;;
25345;SDS011;13300;51.032;3.710;2022-10-12T06:36:17;26.25;;;17.77;;
25345;SDS011;13300;51.032;3.710;2022-10-12T06:38:43;27.75;;;16.75;;
25345;SDS011;13300;51.032;3.710;2022-10-12T06:41:09;27.48;;;16.83;;
25345;SDS011;13300;51.032;3.710;2022-10-12T06:43:34;28.63;;;17.75;;
25345;SDS011;13300;51.032;3.710;2022-10-12T06:46:00;26.52;;;16.02;;
25345;SDS011;13300;51.032;3.710;2022-10-12T06:48:27;29.60;;;16.55;;
25345;SDS011;13300;51.032;3.710;2022-10-12T06:50:53;24.67;;;15.20;;
25345;SDS011;13300;51.032;3.710;2022-10-12T06:53:18;23.23;;;14.88;;
25345;SDS011;13300;51.032;3.710;2022-10-12T06:55:44;22.73;;;13.43;;
25345;SDS011;13300;51.032;3.710;2022-10-12T06:58:10;17.45;;;12.43;;
25345;SDS011;13300;51.032;3.710;2022-10-12T07:00:36;20.40;;;12.35;;
25345;SDS011;13300;51.032;3.710;2022-10-12T07:03:02;15.27;;;11.30;;
25345;SDS011;13300;51.032;3.710;2022-10-12T07:05:27;15.73;;;11.63;;
25345;SDS011;13300;51.032;3.710;2022-10-12T07:07:53;15.50;;;11.23;;
25345;SDS011;13300;51.032;3.710;2022-10-12T07:10:19;16.27;;;11.10;;
25345;SDS011;13300;51.032;3.710;2022-10-12T07:12:45;17.48;;;10.20;;
25345;SDS011;13300;51.032;3.710;2022-10-12T07:15:10;17.75;;;10.45;;
25345;SDS011;13300;51.032;3.710;2022-10-12T07:17:36;17.38;;;11.07;;
25345;SDS011;13300;51.032;3.710;2022-10-12T07:20:02;20.20;;;11.15;;
25345;SDS011;13300;51.032;3.710;2022-10-12T07:22:31;19.77;;;11.25;;
25345;SDS011;13300;51.032;3.710;2022-10-12T07:24:57;20.38;;;11.60;;
25345;SDS011;13300;51.032;3.710;2022-10-12T07:27:23;24.83;;;11.43;;
25345;SDS011;13300;51.032;3.710;2022-10-12T07:29:48;20.77;;;11.30;;
25345;SDS011;13300;51.032;3.710;2022-10-12T07:32:14;21.98;;;12.23;;
25345;SDS011;13300;51.032;3.710;2022-10-12T07:34:40;27.02;;;12.35;;
25345;SDS011;13300;51.032;3.710;2022-10-12T07:37:08;19.88;;;12.77;;
25345;SDS011;13300;51.032;3.710;2022-10-12T07:39:34;24.23;;;12.88;;
25345;SDS011;13300;51.032;3.710;2022-10-12T07:42:00;22.80;;;11.98;;
25345;SDS011;13300;51.032;3.710;2022-10-12T07:44:25;27.15;;;12.48;;
25345;SDS011;13300;51.032;3.710;2022-10-12T07:46:52;22.50;;;11.82;;
25345;SDS011;13300;51.032;3.710;2022-10-12T07:49:17;29.27;;;11.68;;
25345;SDS011;13300;51.032;3.710;2022-10-12T07:51:43;23.80;;;11.73;;
25345;SDS011;13300;51.032;3.710;2022-10-12T07:54:10;22.45;;;11.15;;
25345;SDS011;13300;51.032;3.710;2022-10-12T07:56:36;19.23;;;11.13;;
25345;SDS011;13300;51.032;3.710;2022-10-12T07:59:02;22.13;;;10.15;;
25345;SDS011;13300;51.032;3.710;2022-10-12T08:01:28;21.05;;;10.13;;
25345;SDS011;13300;51.032;3.710;2022-10-12T08:03:55;32.25;;;11.35;;
25345;SDS011;13300;51.032;3.710;2022-10-12T08:06:23;46.35;;;12.57;;
25345;SDS011;13300;51.032;3.710;2022-10-12T08:08:50;43.70;;;11.95;;
25345;SDS011;13300;51.032;3.710;2022-10-12T08:11:17;35.85;;;12.25;;
25345;SDS011;13300;51.032;3.710;2022-10-12T08:13:43;27.50;;;10.10;;
25345;SDS011;13300;51.032;3.710;2022-10-12T08:16:11;23.02;;;9.85;;
25345;SDS011;13300;51.032;3.710;2022-10-12T08:18:38;18.98;;;9.90;;
25345;SDS011;13300;51.032;3.710;2022-10-12T08:21:04;21.77;;;9.82;;
25345;SDS011;13300;51.032;3.710;2022-10-12T08:23:34;20.08;;;10.13;;
25345;SDS011;13300;51.032;3.710;2022-10-12T08:26:01;16.95;;;9.48;;
25345;SDS011;13300;51.032;3.710;2022-10-12T08:28:27;24.33;;;9.45;;
25345;SDS011;13300;51.032;3.710;2022-10-12T08:30:53;16.73;;;9.57;;
25345;SDS011;13300;51.032;3.710;2022-10-12T08:33:19;19.65;;;9.05;;
25345;SDS011;13300;51.032;3.710;2022-10-12T08:35:45;18.88;;;9.90;;
25345;SDS011;13300;51.032;3.710;2022-10-12T08:38:15;28.45;;;10.38;;
25345;SDS011;13300;51.032;3.710;2022-10-12T08:43:50;32.78;;;11.27;;
25345;SDS011;13300;51.032;3.710;2022-10-12T08:46:28;39.03;;;11.23;;
25345;SDS011;13300;51.032;3.710;2022-10-12T08:49:14;23.67;;;11.73;;
25345;SDS011;13300;51.032;3.710;2022-10-12T08:51:48;21.83;;;10.80;;
25345;SDS011;13300;51.032;3.710;2022-10-12T08:54:21;28.17;;;11.02;;
25345;SDS011;13300;51.032;3.710;2022-10-12T08:56:53;39.20;;;12.30;;
25345;SDS011;13300;51.032;3.710;2022-10-12T08:59:20;31.73;;;11.60;;
25345;SDS011;13300;51.032;3.710;2022-10-12T09:04:52;41.10;;;12.10;;
25345;SDS011;13300;51.032;3.710;2022-10-12T09:15:28;21.63;;;10.50;;
25345;SDS011;13300;51.032;3.710;2022-10-12T09:18:20;21.67;;;10.40;;
25345;SDS011;13300;51.032;3.710;2022-10-12T09:20:53;20.45;;;10.10;;
25345;SDS011;13300;51.032;3.710;2022-10-12T09:23:23;25.08;;;11.52;;
25345;SDS011;13300;51.032;3.710;2022-10-12T09:25:55;20.25;;;10.15;;
25345;SDS011;13300;51.032;3.710;2022-10-12T09:29:12;20.60;;;10.57;;
25345;SDS011;13300;51.032;3.710;2022-10-12T09:34:23;22.92;;;10.25;;
25345;SDS011;13300;51.032;3.710;2022-10-12T09:36:49;26.13;;;11.10;;
25345;SDS011;13300;51.032;3.710;2022-10-12T09:39:16;18.02;;;9.45;;
25345;SDS011;13300;51.032;3.710;2022-10-12T09:41:45;23.60;;;9.57;;
25345;SDS011;13300;51.032;3.710;2022-10-12T09:47:00;25.15;;;9.77;;
25345;SDS011;13300;51.032;3.710;2022-10-12T09:49:40;24.55;;;9.65;;
25345;SDS011;13300;51.032;3.710;2022-10-12T09:52:07;22.65;;;10.20;;
25345;SDS011;13300;51.032;3.710;2022-10-12T09:54:34;23.10;;;10.15;;
25345;SDS011;13300;51.032;3.710;2022-10-12T09:57:03;19.60;;;10.10;;
25345;SDS011;13300;51.032;3.710;2022-10-12T10:02:04;21.48;;;9.68;;
25345;SDS011;13300;51.032;3.710;2022-10-12T10:04:36;22.33;;;9.73;;
25345;SDS011;13300;51.032;3.710;2022-10-12T10:12:46;22.17;;;10.20;;
25345;SDS011;13300;51.032;3.710;2022-10-12T10:18:07;22.25;;;10.10;;
25345;SDS011;13300;51.032;3.710;2022-10-12T10:20:54;22.75;;;9.65;;
25345;SDS011;13300;51.032;3.710;2022-10-12T10:23:22;23.10;;;10.10;;
25345;SDS011;13300;51.032;3.710;2022-10-12T10:28:36;25.42;;;9.80;;
25345;SDS011;13300;51.032;3.710;2022-10-12T10:31:04;20.85;;;9.52;;
25345;SDS011;13300;51.032;3.710;2022-10-12T10:36:54;25.83;;;10.00;;
25345;SDS011;13300;51.032;3.710;2022-10-12T10:39:53;18.98;;;9.98;;
25345;SDS011;13300;51.032;3.710;2022-10-12T10:42:23;24.75;;;10.38;;
25345;SDS011;13300;51.032;3.710;2022-10-12T10:44:56;23.67;;;9.57;;
25345;SDS011;13300;51.032;3.710;2022-10-12T10:47:26;22.05;;;10.00;;
25345;SDS011;13300;51.032;3.710;2022-10-12T10:49:56;21.30;;;9.23;;
25345;SDS011;13300;51.032;3.710;2022-10-12T10:52:30;17.67;;;8.18;;
25345;SDS011;13300;51.032;3.710;2022-10-12T10:57:42;24.13;;;9.15;;
25345;SDS011;13300;51.032;3.710;2022-10-12T11:00:30;22.60;;;7.68;;
25345;SDS011;13300;51.032;3.710;2022-10-12T11:03:00;19.08;;;8.73;;
25345;SDS011;13300;51.032;3.710;2022-10-12T11:05:47;19.20;;;8.10;;
25345;SDS011;13300;51.032;3.710;2022-10-12T11:08:25;15.27;;;7.30;;
25345;SDS011;13300;51.032;3.710;2022-10-12T11:10:57;17.85;;;7.35;;
25345;SDS011;13300;51.032;3.710;2022-10-12T11:13:43;15.43;;;6.72;;
25345;SDS011;13300;51.032;3.710;2022-10-12T11:19:19;19.13;;;8.07;;
25345;SDS011;13300;51.032;3.710;2022-10-12T11:24:53;18.48;;;7.30;;
25345;SDS011;13300;51.032;3.710;2022-10-12T11:27:41;19.85;;;7.53;;
25345;SDS011;13300;51.032;3.710;2022-10-12T11:30:18;20.35;;;8.30;;
25345;SDS011;13300;51.032;3.710;2022-10-12T11:32:47;20.83;;;8.82;;
25345;SDS011;13300;51.032;3.710;2022-10-12T11:37:59;19.77;;;7.93;;
25345;SDS011;13300;51.032;3.710;2022-10-12T11:43:10;21.73;;;7.93;;
25345;SDS011;13300;51.032;3.710;2022-10-12T11:45:42;22.63;;;8.20;;
25345;SDS011;13300;51.032;3.710;2022-10-12T11:48:30;23.65;;;7.40;;
25345;SDS011;13300;51.032;3.710;2022-10-12T11:51:06;20.50;;;7.03;;
25345;SDS011;13300;51.032;3.710;2022-10-12T11:56:26;17.25;;;6.65;;
25345;SDS011;13300;51.032;3.710;2022-10-12T11:59:13;24.63;;;7.55;;
25345;SDS011;13300;51.032;3.710;2022-10-12T12:01:52;27.30;;;7.93;;
25345;SDS011;13300;51.032;3.710;2022-10-12T12:04:33;21.92;;;7.03;;
25345;SDS011;13300;51.032;3.710;2022-10-12T12:07:01;21.98;;;7.53;;
25345;SDS011;13300;51.032;3.710;2022-10-12T12:19:52;12.60;;;4.32;;
25345;SDS011;13300;51.032;3.710;2022-10-12T12:22:59;11.70;;;3.72;;
25345;SDS011;13300;51.032;3.710;2022-10-12T12:25:30;18.15;;;4.78;;
25345;SDS011;13300;51.032;3.710;2022-10-12T12:27:57;12.13;;;4.22;;
25345;SDS011;13300;51.032;3.710;2022-10-12T12:30:36;11.10;;;3.90;;
25345;SDS011;13300;51.032;3.710;2022-10-12T12:35:56;14.38;;;4.38;;
25345;SDS011;13300;51.032;3.710;2022-10-12T12:40:56;13.75;;;4.93;;
25345;SDS011;13300;51.032;3.710;2022-10-12T12:46:00;16.67;;;4.80;;
25345;SDS011;13300;51.032;3.710;2022-10-12T12:49:22;13.20;;;4.65;;
25345;SDS011;13300;51.032;3.710;2022-10-12T12:51:36;13.43;;;4.53;;
25345;SDS011;13300;51.032;3.710;2022-10-12T12:54:17;12.13;;;4.20;;
25345;SDS011;13300;51.032;3.710;2022-10-12T12:56:50;16.10;;;4.15;;
25345;SDS011;13300;51.032;3.710;2022-10-12T13:08:17;11.25;;;4.43;;
25345;SDS011;13300;51.032;3.710;2022-10-12T13:19:34;15.73;;;4.35;;
25345;SDS011;13300;51.032;3.710;2022-10-12T13:22:02;10.07;;;3.50;;
25345;SDS011;13300;51.032;3.710;2022-10-12T13:24:42;13.63;;;3.95;;
25345;SDS011;13300;51.032;3.710;2022-10-12T13:35:37;14.32;;;4.57;;
25345;SDS011;13300;51.032;3.710;2022-10-12T13:38:05;12.20;;;4.28;;
25345;SDS011;13300;51.032;3.710;2022-10-12T13:51:48;9.15;;;4.03;;
25345;SDS011;13300;51.032;3.710;2022-10-12T13:54:21;10.18;;;3.72;;
25345;SDS011;13300;51.032;3.710;2022-10-12T13:56:51;12.35;;;4.07;;
25345;SDS011;13300;51.032;3.710;2022-10-12T13:59:26;10.55;;;4.03;;
25345;SDS011;13300;51.032;3.710;2022-10-12T14:01:56;13.20;;;4.40;;
25345;SDS011;13300;51.032;3.710;2022-10-12T14:04:27;12.90;;;4.93;;
25345;SDS011;13300;51.032;3.710;2022-10-12T14:06:56;13.70;;;3.85;;
25345;SDS011;13300;51.032;3.710;2022-10-12T14:11:52;11.30;;;4.30;;
25345;SDS011;13300;51.032;3.710;2022-10-12T14:16:53;12.95;;;3.75;;
25345;SDS011;13300;51.032;3.710;2022-10-12T14:19:33;15.55;;;4.28;;
25345;SDS011;13300;51.032;3.710;2022-10-12T14:22:02;13.80;;;4.80;;
25345;SDS011;13300;51.032;3.710;2022-10-12T14:24:28;11.65;;;3.90;;
25345;SDS011;13300;51.032;3.710;2022-10-12T14:27:05;10.50;;;3.92;;
25345;SDS011;13300;51.032;3.710;2022-10-12T14:32:01;11.02;;;4.07;;
25345;SDS011;13300;51.032;3.710;2022-10-12T14:37:33;14.55;;;4.40;;
25345;SDS011;13300;51.032;3.710;2022-10-12T14:39:59;12.95;;;4.10;;
25345;SDS011;13300;51.032;3.710;2022-10-12T14:45:38;13.45;;;4.05;;
25345;SDS011;13300;51.032;3.710;2022-10-12T14:48:07;9.60;;;3.33;;
25345;SDS011;13300;51.032;3.710;2022-10-12T14:50:39;13.23;;;4.05;;
25345;SDS011;13300;51.032;3.710;2022-10-12T14:53:08;15.10;;;3.90;;
25345;SDS011;13300;51.032;3.710;2022-10-12T14:55:35;7.95;;;3.67;;
25345;SDS011;13300;51.032;3.710;2022-10-12T14:58:02;11.13;;;3.75;;
25345;SDS011;13300;51.032;3.710;2022-10-12T15:02:58;12.00;;;3.38;;
25345;SDS011;13300;51.032;3.710;2022-10-12T15:05:25;10.80;;;3.53;;
25345;SDS011;13300;51.032;3.710;2022-10-12T15:07:53;12.13;;;3.42;;
25345;SDS011;13300;51.032;3.710;2022-10-12T15:10:20;8.82;;;3.50;;
25345;SDS011;13300;51.032;3.710;2022-10-12T15:12:47;11.32;;;4.07;;
25345;SDS011;13300;51.032;3.710;2022-10-12T15:17:58;10.73;;;3.95;;
25345;SDS011;13300;51.032;3.710;2022-10-12T15:20:25;11.07;;;4.07;;
25345;SDS011;13300;51.032;3.710;2022-10-12T15:22:52;11.57;;;3.97;;
25345;SDS011;13300;51.032;3.710;2022-10-12T15:25:27;9.30;;;3.40;;
25345;SDS011;13300;51.032;3.710;2022-10-12T15:28:00;12.57;;;3.65;;
25345;SDS011;13300;51.032;3.710;2022-10-12T15:30:27;17.08;;;4.60;;
25345;SDS011;13300;51.032;3.710;2022-10-12T15:32:52;13.48;;;3.83;;
25345;SDS011;13300;51.032;3.710;2022-10-12T15:37:45;11.65;;;3.63;;
25345;SDS011;13300;51.032;3.710;2022-10-12T15:40:12;12.43;;;3.88;;
25345;SDS011;13300;51.032;3.710;2022-10-12T15:42:43;11.45;;;4.22;;
25345;SDS011;13300;51.032;3.710;2022-10-12T15:47:43;11.18;;;4.10;;
25345;SDS011;13300;51.032;3.710;2022-10-12T15:50:12;9.30;;;4.10;;
25345;SDS011;13300;51.032;3.710;2022-10-12T15:52:39;14.90;;;4.53;;
25345;SDS011;13300;51.032;3.710;2022-10-12T15:55:16;11.93;;;4.18;;
25345;SDS011;13300;51.032;3.710;2022-10-12T15:57:50;13.95;;;4.78;;
25345;SDS011;13300;51.032;3.710;2022-10-12T16:00:18;16.45;;;4.35;;
25345;SDS011;13300;51.032;3.710;2022-10-12T16:02:45;13.27;;;4.55;;
25345;SDS011;13300;51.032;3.710;2022-10-12T16:05:19;11.52;;;4.78;;
25345;SDS011;13300;51.032;3.710;2022-10-12T16:07:47;14.85;;;4.65;;
25345;SDS011;13300;51.032;3.710;2022-10-12T16:10:13;11.52;;;4.03;;
25345;SDS011;13300;51.032;3.710;2022-10-12T16:12:45;12.27;;;4.47;;
25345;SDS011;13300;51.032;3.710;2022-10-12T16:15:13;13.65;;;4.38;;
25345;SDS011;13300;51.032;3.710;2022-10-12T16:17:40;14.20;;;4.40;;
25345;SDS011;13300;51.032;3.710;2022-10-12T16:20:06;13.27;;;5.20;;
25345;SDS011;13300;51.032;3.710;2022-10-12T16:22:33;17.00;;;4.53;;
25345;SDS011;13300;51.032;3.710;2022-10-12T16:25:00;12.63;;;4.72;;
25345;SDS011;13300;51.032;3.710;2022-10-12T16:27:27;16.15;;;5.00;;
25345;SDS011;13300;51.032;3.710;2022-10-12T16:29:54;14.00;;;4.78;;
25345;SDS011;13300;51.032;3.710;2022-10-12T16:32:20;10.90;;;4.45;;
25345;SDS011;13300;51.032;3.710;2022-10-12T16:34:45;11.45;;;4.90;;
25345;SDS011;13300;51.032;3.710;2022-10-12T16:37:11;8.90;;;4.45;;
25345;SDS011;13300;51.032;3.710;2022-10-12T16:39:37;14.90;;;4.88;;
25345;SDS011;13300;51.032;3.710;2022-10-12T16:42:02;12.02;;;4.75;;
25345;SDS011;13300;51.032;3.710;2022-10-12T16:44:28;16.00;;;4.85;;
25345;SDS011;13300;51.032;3.710;2022-10-12T16:46:54;11.20;;;4.53;;
25345;SDS011;13300;51.032;3.710;2022-10-12T16:49:20;14.88;;;5.03;;
25345;SDS011;13300;51.032;3.710;2022-10-12T16:51:45;15.40;;;6.15;;
25345;SDS011;13300;51.032;3.710;2022-10-12T16:54:12;14.38;;;5.50;;
25345;SDS011;13300;51.032;3.710;2022-10-12T16:56:38;13.65;;;5.45;;
25345;SDS011;13300;51.032;3.710;2022-10-12T16:59:04;13.40;;;5.93;;
25345;SDS011;13300;51.032;3.710;2022-10-12T17:01:30;14.55;;;5.25;;
25345;SDS011;13300;51.032;3.710;2022-10-12T17:03:56;14.23;;;5.00;;
25345;SDS011;13300;51.032;3.710;2022-10-12T17:06:26;11.10;;;5.35;;
25345;SDS011;13300;51.032;3.710;2022-10-12T17:08:52;13.20;;;5.30;;
25345;SDS011;13300;51.032;3.710;2022-10-12T17:11:19;11.20;;;5.40;;
25345;SDS011;13300;51.032;3.710;2022-10-12T17:13:45;13.38;;;5.20;;
25345;SDS011;13300;51.032;3.710;2022-10-12T17:16:11;14.05;;;5.78;;
25345;SDS011;13300;51.032;3.710;2022-10-12T17:18:56;14.82;;;6.07;;
25345;SDS011;13300;51.032;3.710;2022-10-12T17:21:22;12.57;;;5.50;;